Time;durP1;ratioP1;P1;durP2;ratioP2;P2;SDS_P1;SDS_P2;PMS_P1;PMS_P2;Temp;Humidity;BMP_temperature;BMP_pressure;BME280_temperature;BME280_humidity;BME280_pressure;Samples;Min_cycle;Max_cycle;Signal;HPM_P1;HPM_P2
2023/04/20 00:02:06;;;;;;;15.43;8.40;;;6.40;99.90;;;;;;4654241;28;9999920;-72
2023/04/20 00:04:31;;;;;;;14.70;9.00;;;6.30;99.90;;;;;;4991271;28;20056;-72
2023/04/20 00:06:57;;;;;;;11.20;8.20;;;6.30;99.90;;;;;;5003897;28;20124;-72
2023/04/20 00:09:23;;;;;;;11.55;8.60;;;6.30;99.90;;;;;;5006151;28;20030;-71
2023/04/20 00:11:48;;;;;;;13.02;9.65;;;6.30;99.90;;;;;;5004247;28;20058;-72
2023/04/20 00:14:15;;;;;;;15.10;9.23;;;6.30;99.90;;;;;;4994645;28;20030;-72
2023/04/20 00:16:41;;;;;;;18.17;10.02;;;6.20;99.90;;;;;;4996361;28;20060;-73
2023/04/20 00:19:07;;;;;;;15.48;9.43;;;6.20;99.90;;;;;;5000947;28;20030;-73
2023/04/20 00:21:33;;;;;;;14.25;9.32;;;6.20;99.90;;;;;;5004508;28;20041;-73
2023/04/20 00:23:59;;;;;;;19.75;10.25;;;6.20;99.90;;;;;;5006594;28;20045;-73
2023/04/20 00:26:24;;;;;;;15.15;9.68;;;6.20;99.90;;;;;;5003438;28;20441;-72
2023/04/20 00:28:51;;;;;;;15.45;9.90;;;6.20;99.90;;;;;;5000040;28;20073;-72
2023/04/20 00:31:17;;;;;;;12.82;9.80;;;6.10;99.90;;;;;;5002598;28;20351;-72
2023/04/20 00:33:43;;;;;;;13.55;9.57;;;6.10;99.90;;;;;;5007467;28;20033;-72
2023/04/20 00:36:08;;;;;;;15.13;9.43;;;6.20;99.90;;;;;;5003186;28;20439;-73
2023/04/20 00:38:34;;;;;;;14.43;9.35;;;6.10;99.90;;;;;;5000155;28;20034;-72
2023/04/20 00:41:00;;;;;;;16.83;9.77;;;6.10;99.90;;;;;;5002522;28;20034;-72
2023/04/20 00:43:26;;;;;;;14.32;9.38;;;6.10;99.90;;;;;;4998444;28;20034;-73
2023/04/20 00:45:52;;;;;;;15.60;9.27;;;6.10;99.90;;;;;;4995689;28;20056;-73
2023/04/20 00:48:18;;;;;;;16.05;9.50;;;6.10;99.90;;;;;;5005668;28;20109;-72
2023/04/20 00:50:45;;;;;;;12.15;9.32;;;6.10;99.90;;;;;;5001930;28;20054;-73
2023/04/20 00:53:12;;;;;;;13.65;9.63;;;6.10;99.90;;;;;;4995705;28;20037;-72
2023/04/20 00:55:38;;;;;;;15.75;9.13;;;6.00;99.90;;;;;;5005992;28;20054;-72
2023/04/20 00:58:05;;;;;;;15.57;9.07;;;6.00;99.90;;;;;;4997817;28;20081;-72
2023/04/20 01:00:31;;;;;;;13.57;9.70;;;6.00;99.90;;;;;;5003644;28;20049;-73
2023/04/20 01:02:57;;;;;;;15.57;9.10;;;6.00;99.90;;;;;;4997196;28;20032;-72
2023/04/20 01:05:23;;;;;;;15.13;9.68;;;6.00;99.90;;;;;;5006800;28;20030;-72
2023/04/20 01:07:48;;;;;;;16.88;10.27;;;5.90;99.90;;;;;;5006719;28;20037;-72
2023/04/20 01:10:14;;;;;;;14.88;10.23;;;5.90;99.90;;;;;;5002575;28;20087;-72
2023/04/20 01:12:41;;;;;;;16.60;9.95;;;5.90;99.90;;;;;;4997823;28;20033;-72
2023/04/20 01:15:07;;;;;;;17.50;10.07;;;5.90;99.90;;;;;;5005753;28;20032;-73
2023/04/20 01:17:35;;;;;;;14.27;10.10;;;5.90;99.90;;;;;;4999864;28;20033;-73
2023/04/20 01:20:01;;;;;;;13.73;9.57;;;5.90;99.90;;;;;;4999472;28;20038;-73
2023/04/20 01:22:26;;;;;;;16.67;9.70;;;5.90;99.90;;;;;;5002704;28;20121;-72
2023/04/20 01:24:53;;;;;;;15.88;9.82;;;5.90;99.90;;;;;;5005295;28;20026;-73
2023/04/20 01:27:18;;;;;;;13.88;9.73;;;5.90;99.90;;;;;;5002199;28;20038;-72
2023/04/20 01:29:45;;;;;;;16.73;10.90;;;5.90;99.90;;;;;;5005027;28;20040;-73
2023/04/20 01:32:11;;;;;;;14.73;10.15;;;5.90;99.90;;;;;;4999848;28;20254;-72
2023/04/20 01:34:37;;;;;;;20.98;10.52;;;5.90;99.90;;;;;;4998828;28;20033;-73
2023/04/20 01:37:06;;;;;;;16.02;10.18;;;5.90;99.90;;;;;;4999017;28;20057;-72
2023/04/20 01:39:37;;;;;;;18.17;10.25;;;5.90;99.90;;;;;;5002471;28;20398;-72
2023/04/20 01:42:04;;;;;;;15.27;9.90;;;5.90;99.90;;;;;;5007060;28;20022;-72
2023/04/20 01:44:30;;;;;;;20.65;10.30;;;5.90;99.90;;;;;;5003469;28;20038;-72
2023/04/20 01:46:55;;;;;;;15.43;9.82;;;5.90;99.90;;;;;;4999058;28;20037;-73
2023/04/20 01:49:21;;;;;;;17.23;10.65;;;5.90;99.90;;;;;;5005337;28;20516;-72
2023/04/20 01:51:46;;;;;;;14.05;10.15;;;5.90;99.90;;;;;;5001551;28;20030;-72
2023/04/20 01:54:12;;;;;;;15.88;10.77;;;5.90;99.90;;;;;;4998892;28;20050;-72
2023/04/20 01:56:37;;;;;;;15.45;10.18;;;5.90;99.90;;;;;;4994754;28;20030;-72
2023/04/20 01:59:03;;;;;;;15.10;10.25;;;5.80;99.90;;;;;;5002868;28;20030;-73
2023/04/20 02:01:29;;;;;;;14.40;10.20;;;5.80;99.90;;;;;;5002314;28;20121;-73
2023/04/20 02:03:54;;;;;;;15.98;10.50;;;5.80;99.90;;;;;;5003067;28;20041;-72
2023/04/20 02:06:20;;;;;;;15.25;10.48;;;5.80;99.90;;;;;;5006510;28;20637;-73
2023/04/20 02:08:45;;;;;;;15.68;10.15;;;5.80;99.90;;;;;;4993820;28;20092;-73
2023/04/20 02:11:11;;;;;;;18.52;10.57;;;5.80;99.90;;;;;;5006311;28;20030;-73
2023/04/20 02:13:37;;;;;;;15.68;10.25;;;5.80;99.90;;;;;;5006658;28;20505;-73
2023/04/20 02:16:03;;;;;;;18.02;10.32;;;5.80;99.90;;;;;;4998624;28;20026;-71
2023/04/20 02:18:31;;;;;;;16.52;10.70;;;5.80;99.90;;;;;;4998595;28;20030;-72
2023/04/20 02:20:58;;;;;;;15.15;10.85;;;5.80;99.90;;;;;;5007600;28;20029;-71
2023/04/20 02:23:23;;;;;;;15.02;9.82;;;5.80;99.90;;;;;;5006563;28;20041;-72
2023/04/20 02:25:49;;;;;;;15.60;10.82;;;5.80;99.90;;;;;;5000119;28;20026;-72
2023/04/20 02:28:14;;;;;;;18.88;11.07;;;5.80;99.90;;;;;;5002134;28;20041;-71
2023/04/20 02:30:40;;;;;;;16.90;10.73;;;5.80;99.90;;;;;;5009531;28;20151;-71
2023/04/20 02:33:07;;;;;;;15.40;10.32;;;5.80;99.90;;;;;;5003448;28;20462;-71
2023/04/20 02:35:33;;;;;;;13.13;9.75;;;5.80;99.90;;;;;;5007958;28;20080;-72
2023/04/20 02:37:58;;;;;;;16.48;9.85;;;5.80;99.90;;;;;;5002832;28;20458;-72
2023/04/20 02:40:24;;;;;;;14.35;9.55;;;5.70;99.90;;;;;;5008181;28;20141;-72
2023/04/20 02:42:50;;;;;;;14.63;9.38;;;5.70;99.90;;;;;;5009039;28;20116;-71
2023/04/20 02:45:15;;;;;;;11.65;8.85;;;5.70;99.90;;;;;;4997718;28;20050;-72
2023/04/20 02:47:41;;;;;;;13.60;8.93;;;5.70;99.90;;;;;;5001371;28;20046;-72
2023/04/20 02:50:08;;;;;;;12.52;8.70;;;5.70;99.90;;;;;;5004804;28;20042;-72
2023/04/20 02:52:34;;;;;;;12.18;7.70;;;5.70;99.90;;;;;;4998517;28;20114;-72
2023/04/20 02:54:59;;;;;;;13.30;8.05;;;5.70;99.90;;;;;;5006184;28;20105;-71
2023/04/20 02:57:25;;;;;;;10.90;7.35;;;5.70;99.90;;;;;;5004603;28;20042;-72
2023/04/20 02:59:51;;;;;;;13.13;7.47;;;5.70;99.90;;;;;;5002061;28;20120;-72
2023/04/20 03:02:17;;;;;;;9.57;6.80;;;5.70;99.90;;;;;;5002649;28;20029;-72
2023/04/20 03:04:42;;;;;;;11.07;6.85;;;5.70;99.90;;;;;;5007054;28;20069;-71
2023/04/20 03:07:09;;;;;;;10.75;6.93;;;5.60;99.90;;;;;;5008784;28;20032;-72
2023/04/20 03:09:36;;;;;;;9.63;6.50;;;5.60;99.90;;;;;;5004138;28;20465;-72
2023/04/20 03:12:02;;;;;;;10.93;6.57;;;5.60;99.90;;;;;;4999533;28;20069;-73
2023/04/20 03:14:28;;;;;;;8.45;6.00;;;5.60;99.90;;;;;;5000024;28;20037;-72
2023/04/20 03:16:54;;;;;;;8.90;5.90;;;5.60;99.90;;;;;;5001868;28;20033;-72
2023/04/20 03:19:20;;;;;;;8.93;6.03;;;5.60;99.90;;;;;;5009344;28;20375;-72
2023/04/20 03:21:45;;;;;;;8.45;6.10;;;5.60;99.90;;;;;;5010080;28;20034;-71
2023/04/20 03:24:11;;;;;;;9.40;6.75;;;5.60;99.90;;;;;;5009082;28;20062;-72
2023/04/20 03:26:36;;;;;;;10.63;6.95;;;5.50;99.90;;;;;;5002093;28;20034;-71
2023/04/20 03:29:02;;;;;;;10.30;6.95;;;5.50;99.90;;;;;;5007480;28;20033;-72
2023/04/20 03:31:28;;;;;;;10.77;7.40;;;5.50;99.90;;;;;;5009826;28;20088;-71
2023/04/20 03:33:53;;;;;;;10.07;7.63;;;5.50;99.90;;;;;;4994330;28;20026;-71
2023/04/20 03:36:19;;;;;;;13.07;8.85;;;5.50;99.90;;;;;;4999143;28;20026;-70
2023/04/20 03:38:44;;;;;;;11.48;7.75;;;5.50;99.90;;;;;;4998336;28;20030;-71
2023/04/20 03:41:10;;;;;;;10.75;7.38;;;5.40;99.90;;;;;;5008429;28;20506;-71
2023/04/20 03:43:35;;;;;;;9.70;7.13;;;5.40;99.90;;;;;;5006932;28;20126;-71
2023/04/20 03:46:01;;;;;;;9.43;7.50;;;5.40;99.90;;;;;;5004297;28;20134;-71
2023/04/20 03:48:26;;;;;;;10.45;7.90;;;5.40;99.90;;;;;;5000770;28;20041;-71
2023/04/20 03:50:52;;;;;;;9.60;7.32;;;5.40;99.90;;;;;;5005372;28;20030;-71
2023/04/20 03:53:18;;;;;;;11.48;7.70;;;5.40;99.90;;;;;;5003965;28;20030;-71
2023/04/20 03:55:43;;;;;;;11.55;8.18;;;5.40;99.90;;;;;;4997634;28;20049;-72
2023/04/20 03:58:09;;;;;;;13.02;7.75;;;5.40;99.90;;;;;;5001970;28;20033;-71
2023/04/20 04:00:34;;;;;;;10.40;7.97;;;5.40;99.90;;;;;;5002233;28;20034;-72
2023/04/20 04:03:00;;;;;;;10.38;7.80;;;5.40;99.90;;;;;;5003490;28;20030;-71
2023/04/20 04:05:26;;;;;;;9.98;7.82;;;5.40;99.90;;;;;;5000448;28;20500;-71
2023/04/20 04:07:51;;;;;;;9.60;7.50;;;5.40;99.90;;;;;;4998023;28;20454;-71
2023/04/20 04:10:20;;;;;;;13.10;8.20;;;5.40;99.90;;;;;;4994153;28;20481;-72
2023/04/20 04:12:46;;;;;;;11.50;8.48;;;5.40;99.90;;;;;;4993884;28;20416;-72
2023/04/20 04:15:11;;;;;;;12.13;8.13;;;5.40;99.90;;;;;;4996873;28;20033;-72
2023/04/20 04:17:38;;;;;;;10.18;7.75;;;5.40;99.90;;;;;;4993770;28;20026;-72
2023/04/20 04:20:07;;;;;;;12.68;7.60;;;5.40;99.90;;;;;;4996291;28;20030;-72
2023/04/20 04:22:32;;;;;;;9.18;7.80;;;5.40;99.90;;;;;;4992479;28;20490;-71
2023/04/20 04:24:58;;;;;;;10.43;6.68;;;5.40;99.90;;;;;;4989670;28;20044;-72
2023/04/20 04:27:24;;;;;;;8.18;5.43;;;5.30;99.90;;;;;;5002119;28;20097;-72
2023/04/20 04:29:49;;;;;;;5.88;3.97;;;5.40;99.90;;;;;;5010305;28;20030;-72
2023/04/20 04:32:15;;;;;;;5.90;3.55;;;5.30;99.90;;;;;;4997300;28;20050;-72
2023/04/20 04:34:44;;;;;;;4.82;3.50;;;5.30;99.90;;;;;;4999373;28;20032;-72
2023/04/20 04:37:10;;;;;;;3.40;3.10;;;5.30;99.90;;;;;;4999726;28;20526;-72
2023/04/20 04:39:36;;;;;;;3.30;3.00;;;5.30;99.90;;;;;;4998411;28;20124;-72
2023/04/20 04:42:02;;;;;;;4.07;3.00;;;5.40;99.90;;;;;;5003440;28;20121;-72
2023/04/20 04:44:28;;;;;;;4.07;2.90;;;5.40;99.90;;;;;;4999659;28;20091;-72
2023/04/20 04:46:54;;;;;;;3.05;2.75;;;5.30;99.90;;;;;;4996148;28;20061;-71
2023/04/20 04:49:20;;;;;;;8.45;3.20;;;5.30;99.90;;;;;;4996636;28;20034;-71
2023/04/20 04:51:46;;;;;;;3.85;2.90;;;5.30;99.90;;;;;;4999675;28;20143;-71
2023/04/20 04:54:12;;;;;;;3.60;2.97;;;5.40;99.90;;;;;;5000364;28;20488;-71
2023/04/20 04:56:38;;;;;;;3.58;2.72;;;5.40;99.90;;;;;;5001444;28;20038;-72
2023/04/20 04:59:03;;;;;;;3.83;3.15;;;5.40;99.90;;;;;;5001442;28;20026;-72
2023/04/20 05:01:29;;;;;;;4.15;3.50;;;5.40;99.90;;;;;;4991291;28;20061;-71
2023/04/20 05:03:55;;;;;;;3.72;3.33;;;5.40;99.90;;;;;;5000691;28;20140;-72
2023/04/20 05:06:20;;;;;;;3.63;3.17;;;5.40;99.90;;;;;;4992611;28;20126;-72
2023/04/20 05:08:46;;;;;;;4.22;3.10;;;5.40;99.90;;;;;;4985606;28;20025;-72
2023/04/20 05:11:12;;;;;;;4.68;3.10;;;5.40;99.90;;;;;;4996905;28;20366;-72
2023/04/20 05:13:37;;;;;;;3.83;3.35;;;5.40;99.90;;;;;;4992527;28;20545;-72
2023/04/20 05:16:03;;;;;;;4.78;3.35;;;5.40;99.90;;;;;;4995111;28;20018;-73
2023/04/20 05:18:28;;;;;;;3.97;3.30;;;5.40;99.90;;;;;;4991935;28;21494;-73
2023/04/20 05:20:54;;;;;;;4.65;3.10;;;5.40;99.90;;;;;;4996303;28;20326;-72
2023/04/20 05:23:20;;;;;;;3.28;2.97;;;5.40;99.90;;;;;;4992256;28;20077;-73
2023/04/20 05:25:45;;;;;;;4.25;3.35;;;5.40;99.90;;;;;;4993796;28;20545;-73
2023/04/20 05:28:11;;;;;;;3.67;3.15;;;5.40;99.90;;;;;;4994222;28;20045;-72
2023/04/20 05:30:36;;;;;;;3.53;3.03;;;5.40;99.90;;;;;;4995540;28;20026;-72
2023/04/20 05:33:02;;;;;;;3.33;2.85;;;5.30;99.90;;;;;;4991591;28;20022;-72
2023/04/20 05:35:28;;;;;;;4.72;3.10;;;5.30;99.90;;;;;;4991131;28;20490;-73
2023/04/20 05:37:53;;;;;;;3.67;3.08;;;5.30;99.90;;;;;;4992392;28;20030;-72
2023/04/20 05:40:19;;;;;;;3.20;2.90;;;5.30;99.90;;;;;;4999918;28;20506;-73
2023/04/20 05:42:44;;;;;;;5.68;3.25;;;5.30;99.90;;;;;;5000566;28;20721;-72
2023/04/20 05:45:10;;;;;;;3.63;3.20;;;5.30;99.90;;;;;;5005388;28;20041;-72
2023/04/20 05:47:36;;;;;;;3.65;3.03;;;5.30;99.90;;;;;;4994965;28;20034;-73
2023/04/20 05:50:03;;;;;;;4.18;2.60;;;5.30;99.90;;;;;;5000593;28;20034;-73
2023/04/20 05:52:29;;;;;;;4.53;2.60;;;5.30;99.90;;;;;;4996443;28;20034;-73
2023/04/20 05:54:55;;;;;;;3.00;2.65;;;5.30;99.90;;;;;;5001587;28;20550;-73
2023/04/20 05:57:22;;;;;;;3.42;3.03;;;5.30;99.90;;;;;;5003465;28;20049;-72
2023/04/20 05:59:47;;;;;;;2.95;2.60;;;5.40;99.90;;;;;;5006390;28;20022;-72
2023/04/20 06:02:13;;;;;;;5.03;3.25;;;5.40;99.90;;;;;;4997922;28;20034;-72
2023/04/20 06:04:41;;;;;;;3.40;2.65;;;5.40;99.90;;;;;;5000801;28;20025;-73
2023/04/20 06:07:07;;;;;;;3.80;3.10;;;5.40;99.90;;;;;;5000697;28;20104;-72
2023/04/20 06:09:32;;;;;;;3.10;2.80;;;5.40;99.90;;;;;;4996507;28;20050;-72
2023/04/20 06:11:59;;;;;;;4.60;3.40;;;5.50;99.90;;;;;;4997970;28;21585;-73
2023/04/20 06:14:25;;;;;;;3.75;3.38;;;5.50;99.90;;;;;;5000914;28;20045;-73
2023/04/20 06:16:50;;;;;;;3.85;3.42;;;5.60;99.90;;;;;;4996821;28;20030;-72
2023/04/20 06:19:16;;;;;;;4.50;3.72;;;5.60;99.90;;;;;;4999616;28;20138;-73
2023/04/20 06:21:41;;;;;;;4.45;3.78;;;5.60;99.90;;;;;;4994770;28;20084;-73
2023/04/20 06:24:08;;;;;;;4.22;3.63;;;5.60;99.90;;;;;;5003047;28;20069;-72
2023/04/20 06:26:34;;;;;;;5.18;4.13;;;5.60;99.90;;;;;;4997392;28;20479;-73
2023/04/20 06:28:59;;;;;;;6.45;3.92;;;5.60;99.90;;;;;;5006725;28;20060;-72
2023/04/20 06:31:25;;;;;;;5.05;4.40;;;5.60;99.90;;;;;;5003398;28;20455;-72
2023/04/20 06:33:50;;;;;;;4.95;3.80;;;5.60;99.90;;;;;;5000056;28;20030;-72
2023/04/20 06:36:16;;;;;;;4.30;3.60;;;5.60;99.90;;;;;;5006851;28;20022;-73
2023/04/20 06:38:42;;;;;;;4.72;3.65;;;5.60;99.90;;;;;;4996474;28;20518;-72
2023/04/20 06:41:07;;;;;;;7.13;3.80;;;5.60;99.90;;;;;;4996475;28;20441;-72
2023/04/20 06:43:33;;;;;;;5.18;4.25;;;5.60;99.90;;;;;;4994163;28;20117;-72
2023/04/20 06:45:58;;;;;;;5.50;4.50;;;5.60;99.90;;;;;;4997699;28;20046;-73
2023/04/20 06:48:24;;;;;;;5.28;4.65;;;5.60;99.90;;;;;;4993295;28;20038;-72
2023/04/20 06:50:50;;;;;;;6.55;4.95;;;5.60;99.90;;;;;;5002859;28;20038;-72
2023/04/20 06:53:16;;;;;;;6.05;5.00;;;5.50;99.90;;;;;;5004886;28;20030;-72
2023/04/20 06:55:42;;;;;;;6.05;4.82;;;5.50;99.90;;;;;;4995340;28;20022;-73
2023/04/20 06:58:07;;;;;;;6.18;5.13;;;5.60;99.90;;;;;;5004176;28;20091;-73
2023/04/20 07:00:33;;;;;;;6.20;4.82;;;5.60;99.90;;;;;;5000597;28;20075;-72
2023/04/20 07:02:59;;;;;;;5.50;4.95;;;5.60;99.90;;;;;;5000253;28;20022;-72
2023/04/20 07:05:27;;;;;;;6.15;5.00;;;5.60;99.90;;;;;;4997404;28;20673;-72
2023/04/20 07:07:53;;;;;;;6.63;5.18;;;5.60;99.90;;;;;;5006924;28;20481;-72
2023/04/20 07:10:19;;;;;;;7.57;5.78;;;5.60;99.90;;;;;;5020182;28;20269;-72
2023/04/20 07:12:44;;;;;;;6.28;5.32;;;5.60;99.90;;;;;;5010849;28;20030;-72
2023/04/20 07:15:11;;;;;;;5.40;4.60;;;5.60;99.90;;;;;;5010626;28;20529;-72
2023/04/20 07:17:36;;;;;;;6.75;5.30;;;5.60;99.90;;;;;;5000480;28;20034;-72
2023/04/20 07:20:07;;;;;;;6.63;4.95;;;5.60;99.90;;;;;;4998081;28;20045;-72
2023/04/20 07:22:36;;;;;;;6.03;4.78;;;5.60;99.90;;;;;;5006755;28;20049;-72
2023/04/20 07:25:05;;;;;;;6.10;5.30;;;5.60;99.90;;;;;;5002744;28;20433;-73
2023/04/20 07:27:35;;;;;;;6.05;5.05;;;5.60;99.90;;;;;;5002485;28;20022;-75
2023/04/20 07:30:01;;;;;;;5.53;4.80;;;5.60;99.90;;;;;;4996836;28;20569;-74
2023/04/20 07:32:26;;;;;;;7.05;5.40;;;5.50;99.90;;;;;;5006146;28;20335;-75
2023/04/20 07:34:52;;;;;;;8.60;5.72;;;5.60;99.90;;;;;;4998860;28;20034;-74
2023/04/20 07:37:18;;;;;;;7.65;5.20;;;5.60;99.90;;;;;;5007447;28;20033;-74
2023/04/20 07:39:44;;;;;;;6.70;5.63;;;5.60;99.90;;;;;;5001988;28;20652;-74
2023/04/20 07:42:09;;;;;;;7.80;5.97;;;5.60;99.90;;;;;;4993775;28;20263;-74
2023/04/20 07:44:36;;;;;;;7.13;5.40;;;5.70;99.90;;;;;;5004064;28;20033;-73
2023/04/20 07:47:02;;;;;;;6.30;5.40;;;5.70;99.90;;;;;;5002100;28;20049;-74
2023/04/20 07:49:28;;;;;;;8.05;5.90;;;5.70;99.90;;;;;;5004418;28;20047;-74
2023/04/20 07:51:54;;;;;;;7.18;5.88;;;5.80;99.90;;;;;;5007484;28;20041;-74
2023/04/20 07:54:19;;;;;;;7.75;6.20;;;5.90;99.90;;;;;;4996803;28;20026;-74
2023/04/20 07:56:45;;;;;;;7.47;6.32;;;6.00;99.90;;;;;;5007316;28;20153;-74
2023/04/20 07:59:10;;;;;;;8.05;6.72;;;6.20;99.90;;;;;;4996503;28;20057;-74
2023/04/20 08:01:36;;;;;;;7.70;6.47;;;6.30;99.90;;;;;;4999962;28;20367;-73
2023/04/20 08:04:02;;;;;;;7.63;6.55;;;6.40;99.90;;;;;;5005311;28;20030;-74
2023/04/20 08:06:27;;;;;;;9.50;6.85;;;6.40;99.90;;;;;;4998417;28;20034;-75
2023/04/20 08:08:53;;;;;;;7.63;6.28;;;6.40;99.90;;;;;;5007971;28;20041;-75
2023/04/20 08:11:19;;;;;;;10.75;6.97;;;6.40;99.90;;;;;;5002202;28;20037;-75
2023/04/20 08:13:44;;;;;;;8.48;6.80;;;6.50;99.90;;;;;;5003600;28;20022;-74
2023/04/20 08:16:10;;;;;;;9.52;7.20;;;6.60;99.90;;;;;;5002714;28;20486;-74
2023/04/20 08:18:35;;;;;;;10.18;7.63;;;6.60;99.90;;;;;;5006596;28;20440;-75
2023/04/20 08:21:01;;;;;;;9.02;7.57;;;6.60;99.90;;;;;;5004004;28;20037;-74
2023/04/20 08:23:27;;;;;;;9.80;7.88;;;6.60;99.90;;;;;;4991257;28;20457;-75
2023/04/20 08:25:53;;;;;;;9.30;7.45;;;6.50;99.90;;;;;;5004419;28;20056;-74
2023/04/20 08:28:20;;;;;;;10.82;8.80;;;6.50;99.90;;;;;;4999531;28;20026;-74
2023/04/20 08:30:46;;;;;;;11.73;8.70;;;6.50;99.90;;;;;;5006600;28;20136;-74
2023/04/20 08:33:11;;;;;;;10.25;8.50;;;6.50;99.90;;;;;;5003680;28;20521;-74
2023/04/20 08:35:37;;;;;;;11.43;8.77;;;6.60;99.90;;;;;;5003994;28;20021;-74
2023/04/20 08:38:02;;;;;;;12.63;10.05;;;6.60;99.90;;;;;;5009142;28;20381;-74
2023/04/20 08:40:30;;;;;;;12.60;9.23;;;6.70;99.90;;;;;;5005739;28;20030;-74
2023/04/20 08:42:55;;;;;;;13.68;9.85;;;6.70;99.90;;;;;;4999848;28;20041;-74
2023/04/20 08:45:21;;;;;;;13.80;10.10;;;6.70;99.90;;;;;;5007956;28;20049;-74
2023/04/20 08:47:48;;;;;;;15.48;11.30;;;6.80;99.90;;;;;;5007066;28;20032;-74
2023/04/20 08:50:15;;;;;;;14.15;10.95;;;6.80;99.90;;;;;;4997114;28;20092;-74
2023/04/20 08:52:40;;;;;;;17.63;12.40;;;6.90;99.90;;;;;;5003273;28;20539;-74
2023/04/20 08:55:07;;;;;;;16.30;11.68;;;6.90;99.90;;;;;;5004290;28;20030;-74
2023/04/20 08:57:32;;;;;;;15.63;11.20;;;6.80;99.90;;;;;;5007740;28;20059;-77
2023/04/20 08:59:58;;;;;;;16.55;12.52;;;6.90;99.90;;;;;;4999098;28;20479;-77
2023/04/20 09:02:24;;;;;;;18.20;12.98;;;6.90;99.90;;;;;;5004748;28;20026;-77
2023/04/20 09:05:03;;;;;;;19.63;13.23;;;7.00;99.90;;;;;;4995171;28;20021;-77
2023/04/20 09:07:29;;;;;;;16.73;12.10;;;7.10;99.90;;;;;;4995868;28;20429;-77
2023/04/20 09:09:56;;;;;;;19.02;12.77;;;7.20;99.90;;;;;;4999737;28;20026;-77
2023/04/20 09:12:23;;;;;;;17.45;12.55;;;7.30;99.90;;;;;;4993359;28;20494;-77
2023/04/20 09:14:49;;;;;;;19.00;13.05;;;7.40;99.90;;;;;;4991407;28;20036;-77
2023/04/20 09:17:16;;;;;;;18.83;13.25;;;7.50;99.90;;;;;;5006439;28;20106;-77
2023/04/20 09:19:52;;;;;;;19.95;13.68;;;7.60;99.90;;;;;;5000096;28;20041;-77
2023/04/20 09:22:28;;;;;;;18.15;13.73;;;7.90;99.90;;;;;;5007189;28;20030;-77
2023/04/20 09:24:54;;;;;;;18.98;12.60;;;8.10;99.90;;;;;;4995601;28;20061;-77
2023/04/20 09:27:21;;;;;;;17.70;12.57;;;8.20;99.90;;;;;;4995690;28;20069;-76
2023/04/20 09:29:58;;;;;;;17.88;12.70;;;8.30;99.90;;;;;;5005007;28;20080;-77
2023/04/20 09:32:25;;;;;;;17.40;12.68;;;8.30;99.90;;;;;;4991495;28;20888;-75
2023/04/20 09:34:50;;;;;;;16.42;12.35;;;8.40;99.90;;;;;;4655514;28;10000270;-75
2023/04/20 09:37:16;;;;;;;17.95;12.68;;;8.30;99.90;;;;;;5003293;28;20036;-75
2023/04/20 09:39:45;;;;;;;20.00;13.18;;;8.40;99.90;;;;;;4996748;28;20427;-75
2023/04/20 09:42:13;;;;;;;19.33;12.32;;;8.40;99.90;;;;;;4996563;28;20636;-76
2023/04/20 09:44:39;;;;;;;19.08;12.70;;;8.30;99.90;;;;;;4988969;28;20026;-77
2023/04/20 09:47:07;;;;;;;18.80;13.00;;;8.40;99.90;;;;;;4996592;28;20060;-74
2023/04/20 09:49:33;;;;;;;22.02;13.07;;;8.40;99.90;;;;;;4994775;28;20034;-76
2023/04/20 09:52:03;;;;;;;23.05;14.40;;;8.30;99.90;;;;;;4998084;28;20555;-74
2023/04/20 09:54:29;;;;;;;18.23;12.88;;;8.40;99.90;;;;;;4994756;28;20498;-76
2023/04/20 09:56:57;;;;;;;18.50;13.05;;;;;;;;;;4998610;28;20041;-74
2023/04/20 09:59:23;;;;;;;21.27;12.70;;;8.90;99.90;;;;;;4982325;28;20099;-77
2023/04/20 10:01:49;;;;;;;18.75;13.05;;;8.90;99.90;;;;;;4994877;28;20061;-77
2023/04/20 10:04:15;;;;;;;16.23;11.35;;;8.90;99.90;;;;;;5000428;28;20572;-78
2023/04/20 10:06:52;;;;;;;16.00;11.75;;;8.80;99.90;;;;;;5002689;28;20080;-79
2023/04/20 10:09:24;;;;;;;16.60;11.85;;;8.70;99.90;;;;;;5003255;28;20030;-78
2023/04/20 10:11:51;;;;;;;14.93;11.80;;;8.70;99.90;;;;;;4992880;28;20109;-79
2023/04/20 10:14:22;;;;;;;17.27;11.52;;;8.90;99.90;;;;;;4994670;28;20153;-78
2023/04/20 10:16:59;;;;;;;15.27;11.13;;;9.10;99.90;;;;;;4995473;28;20022;-78
2023/04/20 10:19:44;;;;;;;15.10;10.90;;;9.20;99.90;;;;;;5004365;28;20050;-78
2023/04/20 10:22:23;;;;;;;14.35;9.63;;;9.30;99.90;;;;;;4996608;28;20034;-78
2023/04/20 10:24:49;;;;;;;14.82;10.60;;;9.20;99.90;;;;;;4992811;28;20035;-78
2023/04/20 10:27:16;;;;;;;17.83;11.55;;;9.10;99.90;;;;;;5000696;28;20441;-77
2023/04/20 10:29:42;;;;;;;15.40;10.70;;;9.30;99.90;;;;;;5006285;28;20049;-78
2023/04/20 10:32:08;;;;;;;14.18;10.15;;;9.40;99.90;;;;;;4995377;28;20976;-78
2023/04/20 10:34:35;;;;;;;18.48;9.82;;;9.40;99.90;;;;;;4997317;28;20025;-77
2023/04/20 10:37:10;;;;;;;14.07;10.35;;;9.70;99.90;;;;;;4993809;28;20038;-78
2023/04/20 10:39:43;;;;;;;14.57;10.80;;;9.40;99.90;;;;;;5004178;28;20034;-75
2023/04/20 10:42:08;;;;;;;14.37;11.00;;;9.50;99.90;;;;;;5001232;28;20041;-75
2023/04/20 10:44:34;;;;;;;13.82;10.32;;;9.70;99.90;;;;;;5008353;28;20486;-75
2023/04/20 10:47:00;;;;;;;14.20;10.35;;;9.90;99.90;;;;;;4995712;28;20046;-75
2023/04/20 10:49:27;;;;;;;14.50;9.85;;;9.90;99.90;;;;;;4997638;28;20121;-75
2023/04/20 10:51:53;;;;;;;13.65;10.27;;;9.80;99.90;;;;;;4996436;28;20046;-75
2023/04/20 10:54:19;;;;;;;13.63;9.98;;;9.80;99.90;;;;;;4990739;28;20045;-75
2023/04/20 10:56:48;;;;;;;14.20;9.93;;;9.80;99.90;;;;;;4995327;28;20033;-74
2023/04/20 10:59:16;;;;;;;15.15;10.68;;;9.80;99.90;;;;;;5001518;28;20038;-75
2023/04/20 11:01:43;;;;;;;12.95;10.35;;;9.90;99.90;;;;;;4996958;28;20045;-75
2023/04/20 11:04:10;;;;;;;12.60;9.98;;;9.90;99.90;;;;;;4996025;28;20033;-75
2023/04/20 11:06:38;;;;;;;13.43;10.25;;;9.90;99.90;;;;;;5005611;28;20041;-74
2023/04/20 11:09:16;;;;;;;13.05;9.85;;;10.00;99.90;;;;;;5007538;28;20041;-75
2023/04/20 11:11:42;;;;;;;13.73;9.68;;;;;;;;;;4989521;28;20038;-75
2023/04/20 11:14:08;;;;;;;11.98;8.90;;;;;;;;;;4997109;28;20083;-75
2023/04/20 11:16:35;;;;;;;12.52;9.35;;;;;;;;;;4999173;28;20033;-74
2023/04/20 11:19:02;;;;;;;11.45;9.32;;;;;;;;;;5008165;28;20060;-73
2023/04/20 11:21:36;;;;;;;11.68;9.15;;;;;;;;;;5002195;28;20038;-73
2023/04/20 11:24:02;;;;;;;12.52;9.20;;;;;;;;;;4999764;28;20042;-73
2023/04/20 11:26:36;;;;;;;11.95;9.07;;;;;;;;;;5003000;28;20033;-73
2023/04/20 11:29:02;;;;;;;10.60;8.63;;;;;;;;;;5000063;28;20061;-74
2023/04/20 11:31:28;;;;;;;12.60;9.05;;;;;;;;;;5005949;28;20459;-74
2023/04/20 11:33:54;;;;;;;10.50;9.02;;;;;;;;;;4990004;28;20033;-78
2023/04/20 11:36:21;;;;;;;10.55;8.05;;;;;;;;;;4988524;28;20438;-78
2023/04/20 11:38:48;;;;;;;9.75;8.13;;;11.20;99.90;;;;;;5005578;28;20025;-76
2023/04/20 11:41:13;;;;;;;10.35;8.68;;;11.20;99.90;;;;;;5007781;28;20413;-77
2023/04/20 11:43:39;;;;;;;11.32;8.80;;;11.20;99.90;;;;;;5003151;28;20174;-76
2023/04/20 11:46:21;;;;;;;12.27;9.43;;;10.90;99.90;;;;;;4997379;28;20048;-75
2023/04/20 11:48:48;;;;;;;14.10;9.90;;;10.60;99.90;;;;;;5006847;28;20036;-76
2023/04/20 11:51:14;;;;;;;10.85;8.88;;;10.60;99.90;;;;;;5007548;28;20050;-76
2023/04/20 11:53:40;;;;;;;11.45;8.52;;;10.60;99.90;;;;;;4998899;28;20026;-75
2023/04/20 11:56:06;;;;;;;10.20;8.43;;;10.60;99.90;;;;;;5005757;28;20088;-76
2023/04/20 11:58:32;;;;;;;9.85;8.27;;;10.60;99.90;;;;;;5004386;28;20038;-76
2023/04/20 12:00:58;;;;;;;9.38;8.35;;;10.60;99.90;;;;;;5005991;28;20033;-76
2023/04/20 12:03:25;;;;;;;10.00;8.35;;;10.50;99.90;;;;;;5000441;28;20061;-76
2023/04/20 12:05:51;;;;;;;12.27;8.57;;;10.40;99.90;;;;;;4999992;28;20038;-76
2023/04/20 12:08:16;;;;;;;9.27;8.00;;;10.40;99.90;;;;;;5001452;28;20038;-75
2023/04/20 12:10:42;;;;;;;8.85;7.95;;;10.50;99.90;;;;;;4996022;28;20414;-76
2023/04/20 12:13:08;;;;;;;9.70;8.38;;;10.70;99.90;;;;;;5004159;28;20035;-76
2023/04/20 12:15:33;;;;;;;10.60;8.43;;;10.60;99.90;;;;;;5002362;28;20026;-75
2023/04/20 12:17:59;;;;;;;10.20;8.45;;;10.50;99.90;;;;;;5002381;28;20033;-78
2023/04/20 12:20:24;;;;;;;14.02;8.77;;;10.30;99.90;;;;;;5005075;28;20026;-80
2023/04/20 12:22:50;;;;;;;10.45;8.70;;;10.10;99.90;;;;;;5002483;28;20029;-78
2023/04/20 12:25:15;;;;;;;10.07;8.95;;;10.10;99.90;;;;;;5001791;28;20034;-80
2023/04/20 12:27:41;;;;;;;9.68;8.23;;;10.10;99.90;;;;;;5004621;28;20037;-79
2023/04/20 12:30:08;;;;;;;10.07;8.52;;;10.10;99.90;;;;;;5000356;28;20037;-79
2023/04/20 12:32:34;;;;;;;10.30;9.02;;;10.20;99.90;;;;;;4996324;28;20504;-79
2023/04/20 12:35:00;;;;;;;10.50;8.38;;;10.20;99.90;;;;;;4987798;28;20108;-76
2023/04/20 12:37:26;;;;;;;10.20;8.55;;;10.40;99.90;;;;;;5001239;28;20141;-78
2023/04/20 12:39:52;;;;;;;11.23;8.77;;;10.60;99.90;;;;;;5003188;28;20116;-75
2023/04/20 12:42:18;;;;;;;8.70;7.18;;;10.70;99.90;;;;;;4996932;28;20120;-76
2023/04/20 12:44:44;;;;;;;10.45;8.27;;;;;;;;;;5001972;28;20034;-74
2023/04/20 12:47:12;;;;;;;11.63;8.35;;;;;;;;;;5003138;28;20128;-76